createdAt,value
2019-04-22T00:14:10.343Z,10.87
2019-04-22T00:24:51.213Z,10.62
2019-04-22T00:35:33.303Z,10.42
2019-04-22T00:46:19.690Z,10.23
2019-04-22T00:57:01.484Z,9.98
2019-04-22T01:07:43.539Z,9.71
2019-04-22T01:18:23.426Z,9.51
2019-04-22T01:28:59.294Z,9.46
2019-04-22T01:39:50.379Z,9.33
2019-04-22T01:50:36.822Z,9.21
2019-04-22T02:01:22.341Z,9.10
2019-04-22T02:23:09.487Z,8.82
2019-04-22T02:54:50.552Z,8.50
2019-04-22T03:05:17.787Z,8.40
2019-04-22T03:16:07.906Z,8.24
2019-04-22T03:26:51.940Z,8.09
2019-04-22T03:58:54.083Z,7.66
2019-04-22T04:09:39.276Z,7.54
2019-04-22T04:31:20.140Z,7.57
2019-04-22T04:41:43.281Z,7.71
2019-04-22T04:52:27.217Z,7.81
2019-04-22T05:14:05.449Z,8.45
2019-04-22T05:24:34.472Z,12.89
2019-04-22T05:35:20.577Z,16.49
2019-04-22T05:46:00.488Z,17.21
2019-04-22T05:56:39.455Z,19.99
2019-04-22T06:07:32.351Z,22.71
2019-04-22T06:29:13.623Z,22.93
2019-04-22T06:39:53.737Z,24.27
2019-04-22T07:01:05.667Z,16.09
2019-04-22T07:11:29.685Z,15.82
2019-04-22T07:22:18.062Z,16.20
2019-04-22T07:33:14.783Z,16.34
2019-04-22T07:54:29.190Z,17.11
2019-04-22T08:05:12.931Z,17.42
2019-04-22T08:15:58.551Z,17.69
2019-04-22T08:26:41.486Z,17.66
2019-04-22T08:48:00.984Z,18.45
2019-04-22T08:58:50.794Z,19.10
2019-04-22T09:09:31.413Z,19.57
2019-04-22T09:20:14.177Z,20.14
2019-04-22T09:31:01.354Z,20.47
2019-04-22T09:41:48.315Z,21.10
2019-04-22T09:52:29.450Z,21.65
2019-04-22T10:03:16.560Z,22.21
2019-04-22T10:14:03.823Z,22.72
2019-04-22T10:24:44.629Z,22.76
2019-04-22T10:36:10.241Z,23.50
2019-04-22T10:46:44.376Z,23.53
2019-04-22T10:57:22.038Z,23.37
2019-04-22T11:08:08.059Z,23.99
2019-04-22T11:18:49.587Z,24.23
2019-04-22T11:29:32.299Z,24.34
2019-04-22T11:40:18.964Z,24.81
2019-04-22T11:50:53.721Z,24.15
2019-04-22T12:01:33.084Z,23.96
2019-04-22T12:12:18.891Z,24.06
2019-04-22T12:23:03.119Z,24.34
2019-04-22T12:33:47.664Z,25.07
2019-04-22T12:44:32.614Z,25.63
2019-04-22T12:55:06.017Z,25.19
2019-04-22T13:05:51.501Z,25.12
2019-04-22T13:16:35.978Z,24.90
2019-04-22T13:27:21.223Z,25.59
2019-04-22T13:38:06.911Z,25.90
2019-04-22T13:49:17.757Z,26.86
2019-04-22T13:59:32.222Z,26.93
2019-04-22T14:10:08.561Z,26.38
2019-04-22T14:20:52.054Z,26.25
2019-04-22T14:31:36.236Z,26.01
2019-04-22T14:42:21.666Z,26.18
2019-04-22T14:53:04.063Z,26.60
2019-04-22T15:03:25.950Z,26.30
2019-04-22T15:14:07.712Z,26.34
2019-04-22T15:24:50.213Z,25.75
2019-04-22T15:35:35.329Z,26.19
2019-04-22T15:46:09.850Z,25.79
2019-04-22T15:56:50.808Z,25.41
2019-04-22T16:07:31.734Z,25.18
2019-04-22T16:18:11.363Z,24.58
2019-04-22T16:28:47.337Z,24.76
2019-04-22T16:39:22.800Z,24.61
2019-04-22T16:50:01.761Z,24.27
2019-04-22T17:00:42.795Z,23.87
2019-04-22T17:11:23.748Z,24.02
2019-04-22T17:22:03.982Z,23.49
2019-04-22T17:32:46.772Z,23.27
2019-04-22T17:44:00.342Z,22.69
2019-04-22T17:54:24.805Z,22.51
2019-04-22T18:04:48.010Z,22.22
2019-04-22T18:15:45.161Z,21.87
2019-04-22T18:26:13.457Z,21.35
2019-04-22T18:36:55.296Z,21.07
2019-04-22T18:47:32.384Z,20.74
2019-04-22T18:58:14.534Z,20.49
2019-04-22T19:09:08.709Z,20.02
2019-04-22T19:19:46.866Z,19.75
2019-04-22T19:30:16.587Z,19.55
2019-04-22T19:41:03.056Z,19.15
2019-04-22T19:51:32.834Z,19.01
2019-04-22T20:02:03.829Z,18.62
2019-04-22T20:12:39.779Z,18.37
2019-04-22T20:23:14.514Z,18.14
2019-04-22T20:44:39.708Z,17.59
2019-04-22T20:55:17.665Z,17.57
2019-04-22T21:05:54.106Z,17.18
2019-04-22T21:16:44.463Z,16.86
2019-04-22T21:27:22.155Z,16.57
2019-04-22T21:37:58.297Z,16.36
2019-04-22T21:48:36.903Z,16.08
2019-04-22T21:59:07.778Z,15.86
2019-04-22T22:09:44.014Z,15.77
2019-04-22T22:20:09.868Z,15.63
2019-04-22T22:31:09.153Z,15.34
2019-04-22T22:41:05.800Z,15.13
2019-04-22T22:52:40.921Z,14.88
2019-04-22T23:03:10.779Z,14.74
2019-04-22T23:13:40.426Z,14.53
2019-04-22T23:24:16.199Z,14.37
2019-04-22T23:34:55.953Z,14.06
2019-04-22T23:45:41.763Z,13.77
2019-04-22T23:56:28.096Z,13.45
